Time;durP1;ratioP1;P1;durP2;ratioP2;P2;SDS_P1;SDS_P2;PMS_P1;PMS_P2;Temp;Humidity;BMP_temperature;BMP_pressure;BME280_temperature;BME280_humidity;BME280_pressure;Samples;Min_cycle;Max_cycle;Signal;HPM_P1;HPM_P2
2023/06/23 00:00:32;;;;;;;1.90;1.60;;;;;;;20.97;99.06;98098.22;5058220;28;20231;-79
2023/06/23 00:02:58;;;;;;;1.57;1.47;;;;;;;21.00;98.68;98113.06;5057960;28;20647;-79
2023/06/23 00:05:25;;;;;;;3.33;2.00;;;;;;;20.96;99.31;98112.84;5058358;28;20237;-79
2023/06/23 00:07:52;;;;;;;1.83;1.73;;;;;;;20.97;99.39;98121.75;5057725;28;20213;-79
2023/06/23 00:10:19;;;;;;;1.50;1.40;;;;;;;20.96;100.00;98122.84;5057822;28;20211;-79
2023/06/23 00:12:45;;;;;;;1.70;1.60;;;;;;;20.96;100.00;98120.94;5057967;28;20206;-79
2023/06/23 00:15:16;;;;;;;1.80;1.70;;;;;;;21.00;100.00;98130.09;5057344;28;20227;-79
2023/06/23 00:17:48;;;;;;;1.50;1.40;;;;;;;21.00;100.00;98124.69;5057503;28;20225;-79
2023/06/23 00:20:15;;;;;;;1.70;1.60;;;;;;;20.94;100.00;98125.81;5057111;28;20212;-79
2023/06/23 00:22:44;;;;;;;2.70;1.70;;;;;;;20.91;100.00;98123.69;5057649;28;20201;-80
2023/06/23 00:25:11;;;;;;;1.97;1.73;;;;;;;20.92;100.00;98133.41;5057188;28;20232;-79
2023/06/23 00:27:39;;;;;;;2.50;1.43;;;;;;;20.94;100.00;98131.22;5058146;28;20312;-79
2023/06/23 00:30:06;;;;;;;1.60;1.50;;;;;;;20.81;100.00;98137.28;5058072;28;20201;-79
2023/06/23 00:32:33;;;;;;;1.73;1.63;;;;;;;20.90;100.00;98141.00;5058230;28;20201;-79
2023/06/23 00:35:00;;;;;;;1.90;1.70;;;;;;;20.88;100.00;98134.22;5057350;28;20707;-79
2023/06/23 00:37:30;;;;;;;2.23;1.83;;;;;;;20.87;100.00;98140.72;5057086;28;20225;-79
2023/06/23 00:39:56;;;;;;;2.97;1.80;;;;;;;20.90;100.00;98151.81;5057067;28;20692;-79
2023/06/23 00:42:23;;;;;;;1.90;1.80;;;;;;;20.87;100.00;98152.34;5056910;28;20686;-80
2023/06/23 00:44:50;;;;;;;1.90;1.80;;;;;;;20.95;100.00;98137.44;5056865;28;20668;-79
2023/06/23 00:47:17;;;;;;;1.87;1.77;;;;;;;20.95;100.00;98134.75;5056986;28;20221;-80
2023/06/23 00:49:45;;;;;;;1.80;1.70;;;;;;;20.85;100.00;98134.81;5056631;28;20673;-79
2023/06/23 00:52:12;;;;;;;1.80;1.70;;;;;;;20.90;100.00;98140.16;5056835;28;20201;-80
2023/06/23 00:54:38;;;;;;;2.30;1.80;;;;;;;20.84;100.00;98136.69;5056662;28;20205;-79
2023/06/23 00:57:05;;;;;;;2.10;2.00;;;;;;;20.82;100.00;98140.75;5056995;28;20316;-79
2023/06/23 00:59:31;;;;;;;1.93;1.83;;;;;;;20.90;100.00;98150.97;5057547;28;20205;-80
2023/06/23 01:02:03;;;;;;;2.27;1.90;;;;;;;20.84;100.00;98141.31;5056806;28;20209;-80
2023/06/23 01:04:32;;;;;;;2.13;1.90;;;;;;;20.74;100.00;98144.88;5056845;28;20232;-79
2023/06/23 01:07:17;;;;;;;1.80;1.70;;;;;;;20.67;100.00;98149.78;5056590;28;20237;-79
2023/06/23 01:09:58;;;;;;;2.77;1.77;;;;;;;20.64;100.00;98155.75;5057286;28;20209;-80
2023/06/23 01:12:34;;;;;;;2.27;2.00;;;;;;;20.17;100.00;98160.09;5056925;28;20194;-79
2023/06/23 01:15:13;;;;;;;2.30;2.20;;;;;;;19.84;100.00;98164.22;5056403;28;20196;-79
2023/06/23 01:18:27;;;;;;;2.80;2.57;;;;;;;19.46;100.00;98162.97;5056340;28;20704;-79
2023/06/23 01:20:56;;;;;;;2.70;2.50;;;;;;;19.15;100.00;98165.97;5055206;28;20217;-78
2023/06/23 01:23:39;;;;;;;4.00;3.00;;;;;;;19.07;100.00;98182.69;5054377;28;20221;-78
2023/06/23 01:26:20;;;;;;;2.73;2.53;;;;;;;18.99;100.00;98178.63;5055166;28;20625;-77
2023/06/23 01:29:00;;;;;;;4.07;2.90;;;;;;;18.93;100.00;98173.53;5058465;28;20192;-77
2023/06/23 01:31:34;;;;;;;3.23;2.80;;;;;;;18.84;100.00;98170.56;5074977;28;20193;-77
2023/06/23 01:34:05;;;;;;;3.33;3.13;;;;;;;18.78;100.00;98176.22;5074731;28;20192;-77
2023/06/23 01:36:41;;;;;;;3.17;2.87;;;;;;;18.71;100.00;98171.09;5074557;28;20278;-77
2023/06/23 01:39:11;;;;;;;3.67;3.20;;;;;;;18.46;100.00;98183.69;5074345;28;20632;-76
2023/06/23 01:41:57;;;;;;;3.40;3.10;;;;;;;18.28;100.00;98179.56;5074590;28;20189;-77
2023/06/23 01:44:27;;;;;;;4.20;3.80;;;;;;;18.29;100.00;98189.28;5074720;28;20211;-77
2023/06/23 01:46:56;;;;;;;4.13;3.73;;;;;;;18.15;100.00;98182.75;5074335;28;20229;-77
2023/06/23 01:49:27;;;;;;;4.97;4.03;;;;;;;18.16;100.00;98181.69;5074736;28;20216;-77
2023/06/23 01:51:55;;;;;;;4.67;4.27;;;;;;;18.11;100.00;98197.84;5074544;28;20193;-77
2023/06/23 01:54:24;;;;;;;5.00;4.50;;;;;;;18.10;100.00;98190.81;5074332;28;20287;-77
2023/06/23 01:56:52;;;;;;;4.73;4.33;;;;;;;17.92;100.00;98185.09;5074316;28;20216;-77
2023/06/23 01:59:20;;;;;;;4.97;4.57;;;;;;;17.90;100.00;98196.13;5074559;28;20208;-77
2023/06/23 02:01:48;;;;;;;4.67;4.27;;;;;;;17.93;100.00;98206.38;5074649;28;20231;-78
2023/06/23 02:04:16;;;;;;;5.00;4.50;;;;;;;17.90;100.00;98204.19;5074536;28;20204;-78
2023/06/23 02:06:45;;;;;;;4.67;4.33;;;;;;;17.95;100.00;98214.97;5074440;28;20329;-78
2023/06/23 02:09:17;;;;;;;4.40;4.10;;;;;;;17.96;100.00;98211.19;5074801;28;20212;-78
2023/06/23 02:11:46;;;;;;;4.20;3.90;;;;;;;17.95;100.00;98217.66;5074901;28;20197;-77
2023/06/23 02:14:13;;;;;;;4.13;3.57;;;;;;;17.82;100.00;98226.19;5074645;28;20209;-78
2023/06/23 02:16:41;;;;;;;4.07;3.70;;;;;;;17.79;100.00;98224.03;5074334;28;20228;-78
2023/06/23 02:19:10;;;;;;;2.90;2.70;;;;;;;17.82;100.00;98231.56;5074106;28;20209;-78
2023/06/23 02:21:37;;;;;;;2.80;2.60;;;;;;;17.84;100.00;98240.22;5074446;28;20201;-78
2023/06/23 02:24:06;;;;;;;3.17;2.87;;;;;;;17.88;100.00;98243.16;5074057;28;20655;-78
2023/06/23 02:26:38;;;;;;;2.87;2.67;;;;;;;17.92;100.00;98246.97;5074629;28;20281;-78
2023/06/23 02:29:07;;;;;;;2.80;2.60;;;;;;;17.89;100.00;98245.59;5075620;28;20547;-77
2023/06/23 02:31:34;;;;;;;2.70;2.50;;;;;;;17.75;100.00;98246.31;5074900;28;20205;-78
2023/06/23 02:34:01;;;;;;;2.97;2.77;;;;;;;17.82;100.00;98247.69;5074555;28;20610;-79
2023/06/23 02:36:33;;;;;;;3.47;3.20;;;;;;;17.78;100.00;98249.28;5074279;28;20587;-78
2023/06/23 02:39:02;;;;;;;3.43;3.23;;;;;;;17.83;100.00;98243.94;5074866;28;20205;-79
2023/06/23 02:41:33;;;;;;;3.40;3.10;;;;;;;17.89;100.00;98253.69;5075158;28;20250;-78
2023/06/23 02:44:07;;;;;;;3.53;3.23;;;;;;;17.83;100.00;98253.91;5074287;28;20208;-78
2023/06/23 02:46:38;;;;;;;4.40;4.00;;;;;;;17.88;100.00;98254.75;5074680;28;20235;-78
2023/06/23 02:49:08;;;;;;;4.13;3.73;;;;;;;17.79;100.00;98259.00;5074784;28;20609;-79
2023/06/23 02:51:36;;;;;;;4.30;4.00;;;;;;;17.87;100.00;98239.66;5074902;28;20208;-78
2023/06/23 02:54:09;;;;;;;5.20;4.70;;;;;;;17.82;100.00;98254.97;5075484;28;20208;-78
2023/06/23 02:56:41;;;;;;;5.10;4.70;;;;;;;17.78;100.00;98257.34;5075461;28;20232;-79
2023/06/23 02:59:10;;;;;;;5.67;5.03;;;;;;;17.77;100.00;98255.75;5075606;28;20635;-79
2023/06/23 03:01:41;;;;;;;5.77;5.37;;;;;;;17.77;100.00;98261.13;5076542;28;20668;-79
2023/06/23 03:04:07;;;;;;;6.27;5.70;;;;;;;17.84;100.00;98259.03;5075976;28;20199;-79
2023/06/23 03:06:35;;;;;;;6.10;5.60;;;;;;;17.91;100.00;98273.03;5076075;28;20703;-79
2023/06/23 03:09:03;;;;;;;7.10;6.03;;;;;;;17.82;100.00;98266.53;5075702;28;20208;-79
2023/06/23 03:11:31;;;;;;;7.23;6.47;;;;;;;17.81;100.00;98273.00;5075842;28;20303;-79
2023/06/23 03:13:58;;;;;;;8.00;7.30;;;;;;;17.88;100.00;98281.66;5075298;28;20204;-78
2023/06/23 03:16:36;;;;;;;7.67;6.97;;;;;;;17.87;100.00;98281.91;5075430;28;20223;-79
2023/06/23 03:19:11;;;;;;;7.97;7.30;;;;;;;17.85;100.00;98284.84;5075584;28;20212;-78
2023/06/23 03:21:39;;;;;;;9.13;8.43;;;;;;;17.90;100.00;98284.88;5075305;28;20200;-79
2023/06/23 03:24:09;;;;;;;8.47;7.77;;;;;;;17.84;100.00;98288.63;5075564;28;20578;-79
2023/06/23 03:26:42;;;;;;;10.07;8.13;;;;;;;17.87;100.00;98298.84;5075122;28;20228;-79
2023/06/23 03:29:10;;;;;;;9.37;8.13;;;;;;;17.90;100.00;98300.19;5075951;28;20185;-78
2023/06/23 03:31:41;;;;;;;9.47;8.67;;;;;;;17.86;100.00;98304.47;5075525;28;20208;-79
2023/06/23 03:34:08;;;;;;;10.23;9.23;;;;;;;17.89;100.00;98294.03;5076242;28;20196;-79
2023/06/23 03:36:38;;;;;;;9.80;8.90;;;;;;;17.97;100.00;98301.59;5074944;28;20330;-79
2023/06/23 03:39:14;;;;;;;9.80;8.90;;;;;;;17.94;100.00;98304.81;5075912;28;20200;-79
2023/06/23 03:41:42;;;;;;;9.93;8.93;;;;;;;17.85;100.00;98301.00;5076154;28;20276;-79
2023/06/23 03:44:23;;;;;;;10.23;9.23;;;;;;;17.90;100.00;98309.09;5076768;28;20208;-79
2023/06/23 03:46:57;;;;;;;9.90;8.97;;;;;;;17.94;100.00;98314.75;5076047;28;20314;-79
2023/06/23 03:49:30;;;;;;;10.70;9.80;;;;;;;17.94;100.00;98312.06;5075938;28;20220;-79
2023/06/23 03:51:58;;;;;;;9.33;8.47;;;;;;;18.02;100.00;98315.09;5075725;28;20268;-79
2023/06/23 03:54:26;;;;;;;10.70;9.70;;;;;;;18.00;100.00;98322.59;5077281;28;20204;-79
2023/06/23 03:56:55;;;;;;;10.43;9.50;;;;;;;18.03;100.00;98319.41;5078704;28;20227;-79
2023/06/23 03:59:26;;;;;;;10.10;9.23;;;;;;;18.08;100.00;98335.56;5078913;28;20207;-79
2023/06/23 04:01:55;;;;;;;10.63;9.63;;;;;;;18.13;100.00;98340.16;5075745;28;20233;-79
2023/06/23 04:04:22;;;;;;;9.97;9.17;;;;;;;18.19;100.00;98336.44;5078026;28;20209;-79
2023/06/23 04:06:50;;;;;;;10.10;9.17;;;;;;;18.20;100.00;98344.25;5078457;28;20255;-79
2023/06/23 04:09:19;;;;;;;10.47;9.47;;;;;;;18.21;100.00;98342.38;5077553;28;20211;-79
2023/06/23 04:11:47;;;;;;;10.00;9.00;;;;;;;18.26;100.00;98347.78;5064418;28;20201;-78
2023/06/23 04:14:15;;;;;;;11.10;10.10;;;;;;;18.28;100.00;98346.44;5058264;28;20209;-79
2023/06/23 04:16:43;;;;;;;11.17;10.17;;;;;;;18.37;100.00;98347.59;5058482;28;20225;-79
2023/06/23 04:19:12;;;;;;;10.80;9.90;;;;;;;18.33;100.00;98364.56;5058734;28;20213;-78
2023/06/23 04:21:41;;;;;;;10.17;9.13;;;;;;;18.36;100.00;98356.75;5058341;28;20201;-79
2023/06/23 04:24:09;;;;;;;11.20;10.10;;;;;;;18.31;100.00;98367.47;5064776;28;20587;-79
2023/06/23 04:26:37;;;;;;;11.60;10.43;;;;;;;18.32;100.00;98370.97;5077623;28;20264;-79
2023/06/23 04:29:06;;;;;;;11.23;10.23;;;;;;;18.39;100.00;98380.47;5073075;28;20215;-79
2023/06/23 04:31:35;;;;;;;10.37;9.50;;;;;;;18.42;100.00;98377.25;5069131;28;20283;-79
2023/06/23 04:34:01;;;;;;;11.07;10.00;;;;;;;18.44;100.00;98385.88;5060281;28;20215;-79
2023/06/23 04:36:38;;;;;;;10.60;9.50;;;;;;;18.50;100.00;98390.22;5075091;28;20213;-80
2023/06/23 04:39:29;;;;;;;14.80;10.87;;;;;;;18.49;100.00;98396.66;5068518;28;20197;-79
2023/06/23 04:42:01;;;;;;;11.60;10.50;;;;;;;18.55;100.00;98409.09;5058048;28;20221;-79
2023/06/23 04:44:29;;;;;;;11.67;10.50;;;;;;;18.64;100.00;98404.03;5063589;28;20197;-79
2023/06/23 04:47:01;;;;;;;12.77;11.47;;;;;;;18.60;100.00;98409.09;5075374;28;20232;-79
2023/06/23 04:49:30;;;;;;;12.40;11.20;;;;;;;18.65;100.00;98406.47;5067969;28;20661;-79
2023/06/23 04:52:03;;;;;;;11.63;10.60;;;;;;;18.71;100.00;98413.50;5055660;28;20209;-78
2023/06/23 04:54:41;;;;;;;13.43;12.13;;;;;;;18.76;100.00;98410.81;5056324;28;20225;-78
2023/06/23 04:57:21;;;;;;;12.60;11.40;;;;;;;18.71;100.00;98418.88;5056176;28;20271;-77
2023/06/23 04:59:52;;;;;;;12.07;10.93;;;;;;;18.70;100.00;98424.53;5055950;28;20197;-77
2023/06/23 05:02:21;;;;;;;13.13;11.97;;;;;;;18.64;100.00;98422.88;5055384;28;20197;-78
2023/06/23 05:04:50;;;;;;;14.03;12.63;;;;;;;18.63;100.00;98426.63;5055663;28;20209;-77
2023/06/23 05:07:18;;;;;;;14.47;13.07;;;;;;;18.62;100.00;98435.78;5054390;28;20225;-78
2023/06/23 05:09:49;;;;;;;14.50;13.27;;;;;;;18.72;100.00;98438.53;5055618;28;20211;-78
2023/06/23 05:12:18;;;;;;;16.30;14.73;;;;;;;18.63;100.00;98432.00;5055642;28;20200;-78
2023/06/23 05:14:47;;;;;;;16.73;15.10;;;;;;;18.64;100.00;98439.84;5055290;28;20205;-77
2023/06/23 05:17:15;;;;;;;16.40;15.00;;;;;;;18.63;100.00;98430.16;5055267;28;20228;-78
2023/06/23 05:19:45;;;;;;;16.23;14.63;;;;;;;18.69;100.00;98441.75;5055103;28;20587;-78
2023/06/23 05:22:15;;;;;;;17.70;16.00;;;;;;;18.77;100.00;98439.38;5055820;28;20199;-78
2023/06/23 05:24:46;;;;;;;17.03;15.27;;;;;;;18.89;100.00;98441.84;5055128;28;20217;-78
2023/06/23 05:27:13;;;;;;;17.73;15.93;;;;;;;19.09;100.00;98433.88;5055293;28;20696;-78
2023/06/23 05:29:42;;;;;;;18.27;16.47;;;;;;;19.39;100.00;98442.88;5056152;28;20209;-78
2023/06/23 05:32:15;;;;;;;19.37;17.40;;;;;;;19.30;100.00;98430.19;5055719;28;20212;-77
2023/06/23 05:34:42;;;;;;;19.03;17.03;;;;;;;19.19;100.00;98432.00;5054961;28;20206;-77
2023/06/23 05:37:10;;;;;;;19.03;17.30;;;;;;;19.17;100.00;98434.16;5055133;28;20726;-78
2023/06/23 05:39:39;;;;;;;19.80;17.93;;;;;;;19.21;100.00;98435.25;5054830;28;20220;-78
2023/06/23 05:42:06;;;;;;;20.87;18.97;;;;;;;19.28;100.00;98435.03;5054859;28;20216;-77
2023/06/23 05:44:33;;;;;;;21.13;19.03;;;;;;;19.27;100.00;98445.00;5054604;28;20657;-78
2023/06/23 05:47:04;;;;;;;21.63;19.40;;;;;;;19.38;100.00;98448.53;5054573;28;20221;-78
2023/06/23 05:49:39;;;;;;;22.73;20.10;;;;;;;19.33;100.00;98448.53;5054897;28;20212;-77
2023/06/23 05:52:08;;;;;;;22.40;20.13;;;;;;;19.16;100.00;98451.41;5054347;28;20189;-78
2023/06/23 05:54:39;;;;;;;22.13;20.10;;;;;;;19.23;100.00;98449.28;5055055;28;20251;-77
2023/06/23 05:57:09;;;;;;;22.73;20.43;;;;;;;19.14;100.00;98456.25;5054084;28;20592;-77
2023/06/23 05:59:41;;;;;;;24.10;21.70;;;;;;;19.08;100.00;98457.31;5054044;28;20216;-78
2023/06/23 06:02:11;;;;;;;23.03;20.70;;;;;;;19.06;100.00;98451.38;5054260;28;20288;-77
2023/06/23 06:04:42;;;;;;;22.97;20.53;;;;;;;19.12;100.00;98453.00;5054549;28;20219;-77
2023/06/23 06:07:11;;;;;;;24.40;21.90;;;;;;;19.09;100.00;98455.44;5063144;28;20224;-76
2023/06/23 06:09:38;;;;;;;23.13;20.73;;;;;;;19.11;100.00;98469.44;5061086;28;20667;-77
2023/06/23 06:12:05;;;;;;;22.57;20.30;;;;;;;19.21;100.00;98470.28;5065115;28;20197;-76
2023/06/23 06:14:35;;;;;;;22.17;20.07;;;;;;;19.32;100.00;98468.50;5062460;28;20197;-73
2023/06/23 06:17:02;;;;;;;21.80;19.80;;;;;;;19.37;100.00;98465.81;5057177;28;20221;-73
2023/06/23 06:19:31;;;;;;;22.87;20.50;;;;;;;19.35;100.00;98484.13;5053541;28;20213;-73
2023/06/23 06:21:59;;;;;;;21.70;19.70;;;;;;;19.54;100.00;98466.41;5053997;28;20258;-73
2023/06/23 06:24:26;;;;;;;21.70;19.40;;;;;;;19.56;100.00;98475.03;5054367;28;20270;-73
2023/06/23 06:26:56;;;;;;;21.60;19.33;;;;;;;19.62;100.00;98473.16;5054136;28;20236;-73
2023/06/23 06:29:23;;;;;;;22.00;19.73;;;;;;;19.71;99.96;98490.44;5054723;28;20220;-73
2023/06/23 06:31:52;;;;;;;20.33;18.43;;;;;;;19.63;100.00;98480.16;5052878;28;20201;-73
2023/06/23 06:34:23;;;;;;;20.30;18.40;;;;;;;19.76;100.00;98490.44;5053601;28;20671;-73
2023/06/23 06:36:50;;;;;;;19.83;17.90;;;;;;;19.85;100.00;98507.72;5053769;28;20218;-73
2023/06/23 06:39:17;;;;;;;20.70;18.50;;;;;;;19.89;100.00;98508.81;5054297;28;20201;-73
2023/06/23 06:41:45;;;;;;;21.97;19.77;;;;;;;19.96;97.49;98503.97;5053343;28;20208;-73
2023/06/23 06:44:12;;;;;;;22.00;19.57;;;;;;;19.88;98.86;98520.69;5053643;28;20255;-73
2023/06/23 06:46:42;;;;;;;20.97;18.97;;;;;;;19.96;96.53;98525.56;5053204;28;20221;-73
2023/06/23 06:49:10;;;;;;;19.70;17.70;;;;;;;19.80;98.84;98530.09;5052576;28;20233;-73
2023/06/23 06:51:41;;;;;;;18.77;17.07;;;;;;;19.90;96.14;98535.53;5053486;28;20205;-73
2023/06/23 06:54:07;;;;;;;19.17;17.30;;;;;;;19.79;95.52;98541.97;5053756;28;20259;-73
2023/06/23 06:56:35;;;;;;;19.47;17.57;;;;;;;19.81;97.48;98544.41;5053449;28;20225;-73
2023/06/23 06:59:02;;;;;;;18.37;16.53;;;;;;;20.03;96.84;98551.19;5053821;28;20216;-73
2023/06/23 07:01:29;;;;;;;17.63;15.93;;;;;;;19.90;97.74;98556.31;5053914;28;20208;-73
2023/06/23 07:03:56;;;;;;;21.23;19.20;;;;;;;19.81;96.27;98564.09;5053289;28;20216;-74
2023/06/23 07:06:23;;;;;;;19.97;17.90;;;;;;;19.91;97.47;98563.31;5053512;28;20232;-74
2023/06/23 07:08:49;;;;;;;21.97;18.23;;;;;;;19.91;96.04;98574.13;5053184;28;20661;-73
2023/06/23 07:11:16;;;;;;;19.63;17.90;;;;;;;19.87;94.69;98570.34;5054050;28;20215;-73
2023/06/23 07:13:42;;;;;;;19.57;17.67;;;;;;;19.79;95.37;98577.06;5053459;28;20568;-73
2023/06/23 07:16:09;;;;;;;18.30;16.50;;;;;;;19.85;96.55;98576.00;5053798;28;20233;-73
2023/06/23 07:18:35;;;;;;;18.73;16.97;;;;;;;19.99;94.29;98587.91;5053178;28;20211;-73
2023/06/23 07:21:03;;;;;;;18.43;16.60;;;;;;;19.91;93.99;98584.91;5053370;28;20217;-73
2023/06/23 07:23:30;;;;;;;17.03;15.33;;;;;;;20.06;96.61;98593.03;5053348;28;20253;-73
2023/06/23 07:25:57;;;;;;;18.27;16.43;;;;;;;19.87;93.66;98595.44;5052854;28;20225;-73
2023/06/23 07:28:23;;;;;;;21.13;19.13;;;;;;;19.78;92.61;98605.13;5053136;28;20232;-73
2023/06/23 07:30:50;;;;;;;25.53;23.00;;;;;;;19.77;93.86;98608.09;5056456;28;20210;-73
2023/06/23 07:33:16;;;;;;;16.90;15.30;;;;;;;19.81;95.25;98615.38;5056859;28;20664;-73
2023/06/23 07:35:43;;;;;;;18.63;16.83;;;;;;;19.68;94.23;98613.19;5056957;28;20225;-73
2023/06/23 07:38:09;;;;;;;17.87;16.20;;;;;;;19.48;95.97;98609.59;5056334;28;20229;-73
2023/06/23 07:40:36;;;;;;;18.73;16.93;;;;;;;19.57;95.53;98613.41;5056701;28;20215;-73
2023/06/23 07:43:02;;;;;;;16.70;15.00;;;;;;;19.72;98.37;98613.47;5056703;28;20206;-73
2023/06/23 07:45:29;;;;;;;19.87;17.77;;;;;;;19.92;94.50;98613.53;5056891;28;20205;-73
2023/06/23 07:47:55;;;;;;;15.90;14.23;;;;;;;19.94;94.28;98624.88;5055861;28;20228;-73
2023/06/23 07:50:22;;;;;;;15.93;14.33;;;;;;;19.91;92.81;98628.91;5056751;28;20209;-73
2023/06/23 07:52:54;;;;;;;16.27;14.77;;;;;;;19.82;91.35;98632.38;5056555;28;20205;-73
2023/06/23 07:55:21;;;;;;;14.30;12.93;;;;;;;19.91;93.54;98633.50;5056687;28;20205;-73
2023/06/23 07:57:48;;;;;;;15.07;13.63;;;;;;;19.93;93.48;98636.75;5057189;28;20259;-73
2023/06/23 08:00:15;;;;;;;15.27;13.57;;;;;;;19.93;91.69;98642.94;5057287;28;20287;-73
2023/06/23 08:02:42;;;;;;;14.37;12.77;;;;;;;20.01;92.50;98649.72;5057005;28;20248;-74
2023/06/23 08:05:09;;;;;;;12.47;11.37;;;;;;;19.95;90.22;98646.22;5057230;28;20209;-73
2023/06/23 08:07:36;;;;;;;12.73;11.53;;;;;;;19.92;90.66;98643.22;5056306;28;20316;-72
2023/06/23 08:10:03;;;;;;;16.37;12.03;;;;;;;19.94;89.34;98658.06;5056399;28;20209;-72
2023/06/23 08:12:30;;;;;;;12.53;11.40;;;;;;;20.04;89.76;98654.59;5056004;28;20244;-72
2023/06/23 08:14:56;;;;;;;13.97;12.67;;;;;;;20.10;88.96;98658.97;5056269;28;20209;-72
2023/06/23 08:17:22;;;;;;;12.00;10.90;;;;;;;20.14;87.37;98654.66;5056336;28;20232;-72
2023/06/23 08:19:49;;;;;;;13.10;11.80;;;;;;;20.17;86.60;98664.94;5055893;28;20694;-72
2023/06/23 08:22:15;;;;;;;12.13;10.67;;;;;;;20.67;86.28;98670.44;5056263;28;20240;-73
2023/06/23 08:24:41;;;;;;;13.97;12.17;;;;;;;20.49;85.47;98677.19;5055847;28;20227;-73
2023/06/23 08:27:08;;;;;;;12.37;11.17;;;;;;;20.47;86.59;98675.78;5055686;28;20712;-72
2023/06/23 08:29:37;;;;;;;13.50;12.30;;;;;;;20.51;87.73;98672.31;5055878;28;20216;-72
2023/06/23 08:32:03;;;;;;;11.93;10.83;;;;;;;20.51;87.43;98688.53;5055967;28;20668;-73
2023/06/23 08:34:29;;;;;;;13.83;12.43;;;;;;;20.48;86.10;98688.25;5055913;28;20209;-73
2023/06/23 08:36:56;;;;;;;12.93;11.63;;;;;;;20.39;86.32;98681.75;5055676;28;20236;-73
2023/06/23 08:39:22;;;;;;;11.97;10.73;;;;;;;20.54;88.28;98682.59;5056205;28;20224;-73
2023/06/23 08:41:50;;;;;;;11.80;10.63;;;;;;;20.42;86.87;98681.19;5054645;28;20259;-73
2023/06/23 08:44:19;;;;;;;11.67;10.40;;;;;;;20.74;84.82;98693.41;5060777;28;20197;-73
2023/06/23 08:46:52;;;;;;;12.80;11.70;;;;;;;21.11;83.34;98696.72;5054767;28;20229;-73
2023/06/23 08:49:22;;;;;;;11.07;10.07;;;;;;;21.27;82.68;98689.41;5056120;28;20637;-73
2023/06/23 08:51:50;;;;;;;10.20;9.20;;;;;;;21.49;83.18;98689.91;5055704;28;20208;-73
2023/06/23 08:54:17;;;;;;;17.37;15.67;;;;;;;21.08;82.98;98683.75;5056362;28;20205;-73
2023/06/23 08:56:44;;;;;;;14.30;13.03;;;;;;;21.09;84.71;98685.38;5055878;28;20236;-73
2023/06/23 08:59:11;;;;;;;20.60;18.50;;;;;;;20.83;82.35;98685.56;5055697;28;20208;-73
2023/06/23 09:01:38;;;;;;;11.70;10.63;;;;;;;21.24;83.66;98688.06;5056233;28;20205;-73
2023/06/23 09:04:04;;;;;;;14.10;12.60;;;;;;;21.31;80.44;98685.06;5055731;28;20209;-73
2023/06/23 09:06:31;;;;;;;10.93;10.00;;;;;;;20.96;83.54;98685.91;5055735;28;20232;-73
2023/06/23 09:08:58;;;;;;;12.60;11.30;;;;;;;20.89;82.48;98693.44;5055197;28;20229;-73
2023/06/23 09:11:25;;;;;;;10.53;9.53;;;;;;;20.97;83.18;98692.09;5055654;28;20228;-73
2023/06/23 09:13:53;;;;;;;12.53;10.60;;;;;;;20.97;83.77;98684.00;5055240;28;20201;-73
2023/06/23 09:16:19;;;;;;;13.60;12.20;;;;;;;21.28;83.41;98699.13;5055009;28;20221;-72
2023/06/23 09:18:49;;;;;;;11.37;10.27;;;;;;;21.67;80.23;98701.00;5055690;28;20209;-73
2023/06/23 09:21:15;;;;;;;10.40;9.43;;;;;;;21.77;79.50;98698.28;5054927;28;20673;-73
2023/06/23 09:24:01;;;;;;;10.50;9.50;;;;;;;21.92;79.56;98687.41;5063040;28;20208;-73
2023/06/23 09:26:27;;;;;;;9.80;9.00;;;;;;;21.54;79.27;98700.72;5054235;28;20217;-73
2023/06/23 09:29:14;;;;;;;13.98;12.60;;;;;;;21.93;78.10;98690.91;5054023;28;20248;-73
2023/06/23 09:31:41;;;;;;;9.47;8.50;;;;;;;22.42;80.00;98687.16;5054742;28;20205;-73
2023/06/23 09:34:08;;;;;;;10.60;9.60;;;;;;;22.66;75.22;98692.75;5055064;28;20205;-73
2023/06/23 09:36:36;;;;;;;8.80;8.02;;;;;;;22.32;75.88;98691.81;5055243;28;20232;-74
2023/06/23 09:39:03;;;;;;;8.43;7.72;;;;;;;21.95;76.22;98702.28;5054690;28;20205;-73
2023/06/23 09:41:33;;;;;;;9.68;8.77;;;;;;;21.64;78.66;98704.22;5054576;28;20643;-73
2023/06/23 09:44:00;;;;;;;13.60;12.30;;;;;;;21.92;77.68;98700.94;5054686;28;20216;-73
2023/06/23 09:46:27;;;;;;;14.30;12.97;;;;;;;22.20;75.20;98702.19;5054577;28;20735;-73
2023/06/23 09:48:54;;;;;;;106.70;96.60;;;;;;;22.47;72.68;98697.22;5053770;28;20247;-73
2023/06/23 09:51:21;;;;;;;10.20;7.53;;;;;;;22.25;71.43;98697.53;5055381;28;20205;-73
2023/06/23 09:53:49;;;;;;;8.33;6.87;;;;;;;22.58;73.85;98696.88;5055514;28;20205;-73
2023/06/23 09:56:22;;;;;;;11.25;9.98;;;;;;;22.62;70.89;98689.78;5055258;28;20236;-73
2023/06/23 09:58:50;;;;;;;15.35;13.52;;;;;;;22.62;68.69;98695.22;5054466;28;20573;-73
2023/06/23 10:01:18;;;;;;;8.60;6.13;;;;;;;23.01;69.71;98689.78;5054035;28;20205;-73
2023/06/23 10:03:49;;;;;;;6.43;5.28;;;;;;;22.82;64.42;98691.53;5053721;28;20204;-73
2023/06/23 10:06:34;;;;;;;8.00;7.38;;;;;;;23.15;66.73;98701.59;5054088;28;20228;-73
2023/06/23 10:09:03;;;;;;;6.68;6.07;;;;;;;23.10;65.43;98693.47;5054193;28;20228;-72
2023/06/23 10:11:36;;;;;;;6.65;5.90;;;;;;;23.02;65.96;98689.47;5063955;28;20200;-73
2023/06/23 10:14:06;;;;;;;7.32;6.53;;;;;;;23.44;64.17;98678.84;5064876;28;20197;-73
2023/06/23 10:16:34;;;;;;;6.93;5.40;;;;;;;23.33;63.15;98695.50;5062170;28;20606;-73
2023/06/23 10:19:00;;;;;;;9.80;7.05;;;;;;;23.03;65.01;98680.28;5064614;28;20197;-74
2023/06/23 10:21:29;;;;;;;8.82;7.43;;;;;;;22.75;66.65;98686.44;5062280;28;20224;-72
2023/06/23 10:23:59;;;;;;;12.10;8.20;;;;;;;22.44;67.74;98693.13;5061924;28;20213;-73
2023/06/23 10:26:26;;;;;;;7.60;6.90;;;;;;;22.59;68.61;98686.81;5063423;28;20261;-73
2023/06/23 10:28:54;;;;;;;8.30;6.53;;;;;;;22.77;66.35;98689.69;5063238;28;20227;-73
2023/06/23 10:31:22;;;;;;;7.00;6.30;;;;;;;22.91;65.57;98692.56;5064802;28;20197;-73
2023/06/23 10:33:50;;;;;;;7.15;6.28;;;;;;;22.69;70.31;98687.56;5059588;28;20198;-73
2023/06/23 10:36:19;;;;;;;29.80;26.65;;;;;;;22.62;66.62;98699.81;5054046;28;20235;-73
2023/06/23 10:38:47;;;;;;;7.13;6.40;;;;;;;22.43;66.38;98705.03;5053909;28;20286;-73
2023/06/23 10:41:14;;;;;;;5.78;5.18;;;;;;;22.21;67.78;98693.75;5053545;28;20680;-73
2023/06/23 10:43:46;;;;;;;5.20;4.80;;;;;;;22.15;69.32;98703.00;5053930;28;20212;-75
2023/06/23 10:46:13;;;;;;;8.40;7.70;;;;;;;21.79;69.15;98706.13;5053763;28;20578;-73
2023/06/23 10:48:41;;;;;;;6.97;6.28;;;;;;;21.81;71.22;98703.94;5054437;28;20308;-72
2023/06/23 10:51:10;;;;;;;11.33;10.23;;;;;;;21.86;71.30;98707.47;5053870;28;20224;-72
2023/06/23 10:53:45;;;;;;;12.53;11.43;;;;;;;22.18;71.21;98707.06;5053849;28;20212;-73
2023/06/23 10:56:11;;;;;;;6.93;5.73;;;;;;;22.95;68.83;98707.16;5054009;28;20225;-73
2023/06/23 10:58:51;;;;;;;13.93;12.63;;;;;;;23.28;67.30;98714.53;5053918;28;20208;-72
2023/06/23 11:01:17;;;;;;;7.97;6.50;;;;;;;22.65;66.48;98701.97;5053907;28;20204;-73
2023/06/23 11:03:43;;;;;;;7.13;6.05;;;;;;;22.82;65.07;98708.63;5055086;28;20207;-73
2023/06/23 11:06:11;;;;;;;7.65;6.20;;;;;;;23.18;64.45;98699.13;5058187;28;20225;-73
2023/06/23 11:08:41;;;;;;;6.95;6.35;;;;;;;22.78;66.46;98706.75;5058000;28;20220;-74
2023/06/23 11:11:15;;;;;;;7.65;5.90;;;;;;;22.70;67.32;98701.94;5057931;28;20193;-73
2023/06/23 11:13:49;;;;;;;7.90;6.15;;;;;;;22.66;67.89;98698.16;5057790;28;20212;-73
2023/06/23 11:16:34;;;;;;;7.07;6.38;;;;;;;22.51;66.43;98709.06;5057773;28;20234;-73
2023/06/23 11:19:02;;;;;;;7.10;6.40;;;;;;;22.69;67.92;98721.97;5057450;28;20211;-73
2023/06/23 11:21:28;;;;;;;8.48;6.60;;;;;;;22.77;68.28;98716.81;5057019;28;20209;-73
2023/06/23 11:24:14;;;;;;;6.55;5.95;;;;;;;22.95;68.62;98701.75;5056851;28;20564;-73
2023/06/23 11:26:46;;;;;;;6.30;5.47;;;;;;;23.24;64.98;98699.94;5057447;28;20248;-73
2023/06/23 11:29:18;;;;;;;5.50;5.00;;;;;;;23.27;63.29;98710.19;5057290;28;20225;-73
2023/06/23 11:32:04;;;;;;;5.15;4.75;;;;;;;23.83;60.77;98706.66;5057352;28;20543;-73